createdAt,value
2019-05-05T00:02:50.504Z,4.30
2019-05-05T00:05:37.613Z,4.20
2019-05-05T00:08:07.648Z,4.20
2019-05-05T00:10:51.705Z,4.20
2019-05-05T00:13:39.423Z,4.10
2019-05-05T00:16:29.495Z,4.10
2019-05-05T00:19:01.119Z,4.10
2019-05-05T00:21:34.340Z,4.00
2019-05-05T00:24:05.982Z,4.00
2019-05-05T00:26:37.509Z,3.90
2019-05-05T00:29:09.377Z,3.90
2019-05-05T00:31:40.639Z,3.90
2019-05-05T00:34:12.287Z,3.90
2019-05-05T00:36:44.590Z,3.90
2019-05-05T00:39:16.966Z,3.80
2019-05-05T00:41:48.930Z,3.80
2019-05-05T00:44:20.769Z,3.90
2019-05-05T00:47:11.579Z,3.90
2019-05-05T00:49:49.107Z,3.90
2019-05-05T00:52:18.652Z,3.90
2019-05-05T00:54:49.924Z,3.90
2019-05-05T00:57:24.275Z,4.00
2019-05-05T00:59:56.323Z,4.10
2019-05-05T01:02:34.466Z,4.10
2019-05-05T01:05:20.750Z,4.10
2019-05-05T01:07:52.116Z,4.20
2019-05-05T01:10:24.834Z,4.20
2019-05-05T01:12:56.468Z,4.30
2019-05-05T01:15:27.646Z,4.30
2019-05-05T01:18:02.080Z,4.30
2019-05-05T01:20:34.323Z,4.30
2019-05-05T01:23:05.631Z,4.30
2019-05-05T01:25:38.190Z,4.40
2019-05-05T01:28:09.878Z,4.30
2019-05-05T01:30:44.505Z,4.30
2019-05-05T01:33:25.030Z,4.20
2019-05-05T01:35:56.856Z,4.20
2019-05-05T01:38:34.330Z,4.10
2019-05-05T01:41:11.447Z,4.10
2019-05-05T01:43:45.048Z,4.10
2019-05-05T01:46:16.132Z,4.00
2019-05-05T01:48:47.935Z,4.00
2019-05-05T01:51:19.257Z,3.90
2019-05-05T01:53:50.814Z,3.90
2019-05-05T01:56:24.554Z,3.80
2019-05-05T01:58:56.258Z,3.90
2019-05-05T02:01:28.135Z,3.90
2019-05-05T02:04:00.166Z,3.90
2019-05-05T02:06:32.404Z,3.80
2019-05-05T02:09:05.297Z,3.80
2019-05-05T02:11:38.916Z,3.80
2019-05-05T02:14:10.563Z,3.80
2019-05-05T02:16:42.774Z,3.80
2019-05-05T02:19:15.280Z,3.70
2019-05-05T02:21:46.966Z,3.70
2019-05-05T02:24:18.967Z,3.60
2019-05-05T02:26:51.028Z,3.60
2019-05-05T02:29:29.240Z,3.60
2019-05-05T02:32:36.530Z,3.50
2019-05-05T02:35:16.335Z,3.60
2019-05-05T02:37:49.094Z,3.60
2019-05-05T02:40:24.385Z,3.60
2019-05-05T02:42:55.674Z,3.60
2019-05-05T02:45:50.131Z,3.50
2019-05-05T02:48:24.937Z,3.60
2019-05-05T02:51:02.214Z,3.60
2019-05-05T02:53:38.290Z,3.60
2019-05-05T02:56:19.181Z,3.50
2019-05-05T02:58:54.932Z,3.60
2019-05-05T03:01:53.740Z,3.50
2019-05-05T03:04:26.495Z,3.40
2019-05-05T03:07:01.471Z,3.30
2019-05-05T03:09:34.667Z,3.30
2019-05-05T03:12:10.883Z,3.30
2019-05-05T03:14:44.808Z,3.30
2019-05-05T03:17:17.864Z,3.10
2019-05-05T03:19:50.194Z,3.10
2019-05-05T03:22:23.661Z,3.00
2019-05-05T03:24:55.562Z,3.00
2019-05-05T03:27:27.252Z,3.00
2019-05-05T03:29:59.512Z,3.10
2019-05-05T03:32:31.825Z,3.10
2019-05-05T03:35:04.272Z,3.10
2019-05-05T03:37:37.061Z,3.10
2019-05-05T03:40:16.902Z,3.10
2019-05-05T03:42:54.877Z,3.20
2019-05-05T03:45:31.795Z,3.20
2019-05-05T03:48:04.608Z,3.20
2019-05-05T03:50:36.753Z,3.20
2019-05-05T03:53:08.499Z,3.20
2019-05-05T03:55:40.026Z,3.20
2019-05-05T03:58:12.169Z,3.20
2019-05-05T04:01:31.594Z,3.20
2019-05-05T04:04:24.499Z,3.10
2019-05-05T04:06:55.991Z,3.10
2019-05-05T04:09:27.141Z,3.20
2019-05-05T04:11:58.132Z,3.30
2019-05-05T04:14:30.161Z,3.40
2019-05-05T04:17:14.266Z,3.50
2019-05-05T04:19:47.980Z,3.60
2019-05-05T04:22:20.050Z,3.80
2019-05-05T04:24:53.962Z,3.90
2019-05-05T04:27:25.604Z,4.10
2019-05-05T04:29:57.509Z,4.30
2019-05-05T04:32:29.120Z,4.60
2019-05-05T04:35:00.735Z,4.90
2019-05-05T04:37:34.156Z,5.20
2019-05-05T04:40:05.590Z,5.60
2019-05-05T04:42:37.177Z,6.10
2019-05-05T04:45:09.223Z,6.50
2019-05-05T04:47:43.676Z,6.90
2019-05-05T04:50:34.547Z,7.30
2019-05-05T04:53:09.833Z,7.70
2019-05-05T04:55:41.764Z,8.10
2019-05-05T04:58:13.667Z,8.30
2019-05-05T05:00:45.523Z,8.60
2019-05-05T05:03:35.472Z,8.90
2019-05-05T05:06:16.562Z,9.30
2019-05-05T05:08:48.406Z,9.80
2019-05-05T05:11:19.786Z,10.40
2019-05-05T05:13:54.473Z,10.90
2019-05-05T05:16:26.035Z,11.30
2019-05-05T05:18:57.579Z,12.00
2019-05-05T05:21:29.239Z,12.50
2019-05-05T05:24:00.627Z,12.90
2019-05-05T05:26:33.606Z,13.20
2019-05-05T05:29:05.433Z,13.40
2019-05-05T05:31:38.341Z,13.40
2019-05-05T05:34:09.970Z,13.60
2019-05-05T05:36:41.654Z,13.70
2019-05-05T05:39:19.602Z,13.40
2019-05-05T05:41:51.105Z,13.10
2019-05-05T05:44:41.091Z,13.30
2019-05-05T05:47:34.762Z,13.30
2019-05-05T05:50:14.318Z,13.80
2019-05-05T05:52:45.595Z,14.30
2019-05-05T05:55:16.986Z,14.90
2019-05-05T05:57:48.015Z,15.30
2019-05-05T06:00:19.657Z,15.70
2019-05-05T06:02:51.750Z,16.20
2019-05-05T06:05:23.746Z,16.80
2019-05-05T06:07:55.671Z,17.70
2019-05-05T06:10:27.618Z,17.80
2019-05-05T06:12:58.980Z,18.60
2019-05-05T06:15:30.724Z,18.70
2019-05-05T06:18:04.701Z,18.60
2019-05-05T06:20:36.092Z,18.80
2019-05-05T06:23:07.513Z,19.00
2019-05-05T06:25:39.365Z,18.80
2019-05-05T06:28:10.689Z,18.90
2019-05-05T06:30:44.349Z,18.70
2019-05-05T06:33:16.288Z,18.90
2019-05-05T06:35:47.997Z,19.30
2019-05-05T06:38:19.685Z,19.60
2019-05-05T06:40:57.098Z,19.50
2019-05-05T06:44:05.675Z,19.50
2019-05-05T06:46:55.010Z,19.20
2019-05-05T06:49:26.697Z,18.40
2019-05-05T06:51:58.779Z,17.10
2019-05-05T06:54:30.205Z,16.40
2019-05-05T06:57:04.313Z,16.00
2019-05-05T06:59:36.271Z,15.60
2019-05-05T07:02:07.438Z,15.50
2019-05-05T07:04:38.775Z,15.90
2019-05-05T07:07:10.329Z,16.10
2019-05-05T07:09:44.105Z,16.00
2019-05-05T07:12:15.268Z,16.00
2019-05-05T07:14:47.466Z,16.00
2019-05-05T07:17:18.835Z,15.50
2019-05-05T07:19:50.354Z,15.40
2019-05-05T07:22:24.047Z,15.20
2019-05-05T07:24:55.515Z,15.50
2019-05-05T07:27:26.831Z,15.40
2019-05-05T07:29:58.478Z,15.20
2019-05-05T07:32:30.679Z,14.50
2019-05-05T07:35:17.343Z,14.40
2019-05-05T07:37:49.134Z,14.40
2019-05-05T07:40:20.698Z,14.80
2019-05-05T07:42:54.029Z,15.10
2019-05-05T07:45:25.879Z,14.80
2019-05-05T07:47:57.913Z,15.00
2019-05-05T07:50:32.624Z,14.90
2019-05-05T07:53:12.275Z,15.00
2019-05-05T07:55:36.718Z,15.10
2019-05-05T07:58:07.750Z,15.70
2019-05-05T08:00:39.317Z,16.00
2019-05-05T08:03:10.867Z,15.60
2019-05-05T08:05:44.056Z,14.70
2019-05-05T08:08:15.207Z,14.20
2019-05-05T08:10:46.771Z,13.60
2019-05-05T08:13:18.435Z,13.00
2019-05-05T08:15:59.188Z,12.80
2019-05-05T08:18:41.338Z,12.50
2019-05-05T08:21:13.608Z,12.40
2019-05-05T08:24:13.969Z,12.60
2019-05-05T08:26:52.046Z,13.00
2019-05-05T08:29:35.652Z,13.60
2019-05-05T08:32:13.632Z,14.10
2019-05-05T08:34:57.401Z,14.20
2019-05-05T08:37:18.567Z,14.40
2019-05-05T08:39:50.739Z,14.20
2019-05-05T08:42:24.689Z,14.20
2019-05-05T08:44:55.886Z,14.70
2019-05-05T08:47:28.302Z,14.90
2019-05-05T08:50:00.092Z,14.70
2019-05-05T08:52:34.150Z,14.50
2019-05-05T08:55:04.848Z,14.90
2019-05-05T08:57:36.783Z,15.40
2019-05-05T09:00:08.641Z,15.80
2019-05-05T09:02:40.763Z,15.80
2019-05-05T09:05:14.422Z,16.00
2019-05-05T09:07:45.625Z,16.00
2019-05-05T09:10:17.965Z,16.10
2019-05-05T09:12:49.718Z,16.40
2019-05-05T09:15:24.298Z,16.80
2019-05-05T09:17:56.515Z,16.40
2019-05-05T09:20:28.486Z,15.90
2019-05-05T09:23:01.627Z,15.80
2019-05-05T09:25:49.439Z,16.40
2019-05-05T09:28:44.541Z,16.20
2019-05-05T09:31:16.419Z,16.60
2019-05-05T09:33:48.291Z,17.10
2019-05-05T09:36:19.868Z,16.60
2019-05-05T09:38:53.939Z,15.90
2019-05-05T09:41:25.733Z,15.40
2019-05-05T09:43:57.221Z,15.50
2019-05-05T09:46:28.521Z,15.80
2019-05-05T09:49:00.195Z,15.90
2019-05-05T09:51:34.547Z,16.20
2019-05-05T09:54:13.939Z,16.80
2019-05-05T09:56:39.410Z,17.50
2019-05-05T09:59:10.911Z,17.40
2019-05-05T10:01:44.348Z,17.30
2019-05-05T10:04:15.337Z,17.60
2019-05-05T10:06:47.922Z,17.60
2019-05-05T10:09:20.095Z,17.50
2019-05-05T10:11:54.000Z,17.80
2019-05-05T10:14:25.320Z,17.40
2019-05-05T10:16:56.822Z,16.50
2019-05-05T10:19:29.185Z,15.30
2019-05-05T10:22:00.800Z,14.50
2019-05-05T10:24:37.101Z,14.10
2019-05-05T10:27:10.246Z,13.50
2019-05-05T10:29:44.088Z,13.70
2019-05-05T10:32:15.407Z,14.20
2019-05-05T10:35:01.515Z,14.80
2019-05-05T10:37:34.667Z,15.10
2019-05-05T10:40:07.405Z,14.60
2019-05-05T10:42:53.666Z,14.00
2019-05-05T10:45:27.204Z,13.90
2019-05-05T10:47:58.931Z,13.60
2019-05-05T10:50:30.667Z,13.10
2019-05-05T10:53:04.562Z,12.80
2019-05-05T10:55:36.442Z,12.80
2019-05-05T10:58:08.189Z,12.60
2019-05-05T11:00:55.342Z,12.80
2019-05-05T11:03:27.067Z,12.60
2019-05-05T11:05:59.346Z,12.40
2019-05-05T11:08:31.370Z,12.50
2019-05-05T11:11:04.219Z,12.50
2019-05-05T11:13:37.533Z,12.50
2019-05-05T11:16:09.135Z,12.30
2019-05-05T11:18:40.425Z,12.30
2019-05-05T11:21:14.303Z,12.50
2019-05-05T11:23:45.627Z,12.60
2019-05-05T11:26:17.120Z,12.70
2019-05-05T11:28:48.516Z,12.70
2019-05-05T11:31:20.110Z,12.90
2019-05-05T11:34:14.999Z,13.10
2019-05-05T11:36:56.463Z,13.00
2019-05-05T11:39:29.644Z,13.00
2019-05-05T11:42:00.936Z,12.90
2019-05-05T11:44:33.553Z,13.00
2019-05-05T11:47:05.586Z,13.00
2019-05-05T11:49:37.294Z,12.90
2019-05-05T11:52:08.888Z,13.10
2019-05-05T11:54:40.531Z,13.10
2019-05-05T11:57:13.538Z,13.00
2019-05-05T11:59:44.835Z,13.00
2019-05-05T12:02:16.623Z,12.80
2019-05-05T12:04:47.766Z,12.90
2019-05-05T12:07:19.073Z,12.80
2019-05-05T12:09:55.967Z,12.80
2019-05-05T12:12:27.650Z,12.80
2019-05-05T12:14:59.380Z,12.90
2019-05-05T12:17:35.178Z,12.80
2019-05-05T12:20:11.226Z,12.60
2019-05-05T12:22:44.664Z,12.50
2019-05-05T12:25:34.648Z,12.60
2019-05-05T12:28:10.604Z,12.60
2019-05-05T12:30:41.731Z,12.50
2019-05-05T12:33:15.152Z,12.10
2019-05-05T12:35:46.879Z,12.10
2019-05-05T12:38:18.365Z,12.10
2019-05-05T12:40:50.364Z,12.20
2019-05-05T12:43:22.116Z,12.20
2019-05-05T12:46:06.397Z,12.20
2019-05-05T12:48:38.325Z,12.20
2019-05-05T12:51:10.439Z,12.30
2019-05-05T12:53:42.972Z,12.30
2019-05-05T12:56:14.647Z,12.40
2019-05-05T12:58:46.176Z,12.30
2019-05-05T13:01:21.494Z,12.20
2019-05-05T13:03:54.283Z,12.20
2019-05-05T13:06:25.956Z,12.20
2019-05-05T13:08:57.408Z,12.30
2019-05-05T13:11:29.431Z,12.60
2019-05-05T13:14:00.897Z,12.70
2019-05-05T13:16:32.252Z,12.80
2019-05-05T13:19:07.842Z,12.80
2019-05-05T13:21:59.778Z,12.90
2019-05-05T13:25:04.490Z,12.80
2019-05-05T13:30:17.188Z,12.70
2019-05-05T13:32:48.839Z,12.90
2019-05-05T13:35:20.460Z,13.00
2019-05-05T13:37:52.310Z,13.20
2019-05-05T13:40:24.115Z,13.00
2019-05-05T13:42:56.659Z,12.50
2019-05-05T13:45:54.072Z,12.50
2019-05-05T13:48:25.701Z,12.80
2019-05-05T13:51:00.451Z,12.90
2019-05-05T13:53:31.457Z,12.90
2019-05-05T13:56:11.754Z,12.80
2019-05-05T13:58:36.802Z,12.80
2019-05-05T14:01:10.004Z,12.90
2019-05-05T14:03:41.793Z,13.00
2019-05-05T14:06:13.764Z,13.00
2019-05-05T14:08:47.123Z,13.10
2019-05-05T14:11:19.052Z,13.30
2019-05-05T14:13:50.476Z,13.20
2019-05-05T14:16:21.910Z,12.90
2019-05-05T14:18:54.383Z,12.60
2019-05-05T14:21:26.489Z,12.80
2019-05-05T14:24:20.442Z,12.90
2019-05-05T14:26:54.088Z,12.80
2019-05-05T14:29:43.202Z,13.00
2019-05-05T14:32:17.432Z,12.90
2019-05-05T14:34:55.351Z,12.90
2019-05-05T14:37:34.048Z,12.80
2019-05-05T14:40:06.710Z,12.90
2019-05-05T14:42:37.807Z,12.70
2019-05-05T14:45:11.379Z,12.60
2019-05-05T14:47:44.136Z,12.70
2019-05-05T14:50:16.434Z,12.60
2019-05-05T14:52:48.636Z,12.60
2019-05-05T14:55:22.374Z,12.50
2019-05-05T14:57:54.484Z,12.30
2019-05-05T15:00:27.242Z,12.10
2019-05-05T15:02:59.194Z,12.10
2019-05-05T15:05:44.385Z,12.20
2019-05-05T15:08:35.582Z,12.40
2019-05-05T15:11:29.331Z,12.60
2019-05-05T15:14:00.987Z,12.70
2019-05-05T15:16:34.635Z,12.90
2019-05-05T15:19:07.412Z,13.00
2019-05-05T15:21:40.560Z,12.70
2019-05-05T15:24:13.814Z,12.50
2019-05-05T15:26:51.770Z,12.20
2019-05-05T15:29:18.398Z,12.30
2019-05-05T15:31:49.849Z,12.40
2019-05-05T15:34:23.903Z,12.30
2019-05-05T15:36:55.402Z,12.40
2019-05-05T15:39:27.158Z,12.40
2019-05-05T15:41:58.620Z,12.30
2019-05-05T15:44:30.573Z,12.30
2019-05-05T15:47:02.445Z,12.30
2019-05-05T15:49:34.317Z,12.30
2019-05-05T15:52:07.222Z,12.40
2019-05-05T15:54:39.134Z,12.40
2019-05-05T15:57:13.899Z,12.50
2019-05-05T15:59:44.084Z,12.60
2019-05-05T16:02:15.374Z,12.70
2019-05-05T16:04:47.650Z,12.70
2019-05-05T16:07:19.175Z,12.60
2019-05-05T16:09:51.127Z,12.40
2019-05-05T16:12:33.648Z,12.30
2019-05-05T16:15:18.108Z,12.10
2019-05-05T16:18:06.935Z,11.90
2019-05-05T16:20:44.342Z,11.70
2019-05-05T16:23:20.275Z,11.60
2019-05-05T16:25:54.662Z,11.50
2019-05-05T16:28:26.027Z,11.50
2019-05-05T16:30:57.402Z,11.40
2019-05-05T16:33:29.025Z,11.40
2019-05-05T16:36:00.023Z,11.40
2019-05-05T16:38:34.359Z,11.40
2019-05-05T16:41:05.816Z,11.40
2019-05-05T16:43:37.409Z,11.40
2019-05-05T16:46:09.297Z,11.50
2019-05-05T16:48:40.890Z,11.50
2019-05-05T16:51:14.550Z,11.50
2019-05-05T16:53:46.144Z,11.60
2019-05-05T16:56:17.421Z,11.70
2019-05-05T16:58:49.180Z,11.60
2019-05-05T17:01:21.384Z,11.60
2019-05-05T17:03:54.254Z,11.50
2019-05-05T17:06:26.060Z,11.50
2019-05-05T17:08:57.295Z,11.50
2019-05-05T17:11:28.680Z,11.60
2019-05-05T17:14:15.386Z,11.50
2019-05-05T17:17:05.617Z,11.50
2019-05-05T17:19:44.377Z,11.40
2019-05-05T17:22:25.027Z,11.20
2019-05-05T17:24:57.249Z,11.20
2019-05-05T17:27:29.267Z,11.30
2019-05-05T17:30:01.047Z,11.30
2019-05-05T17:32:34.336Z,11.30
2019-05-05T17:35:05.799Z,11.20
2019-05-05T17:37:38.549Z,11.00
2019-05-05T17:40:24.124Z,11.00
2019-05-05T17:43:06.719Z,10.80
2019-05-05T17:45:58.764Z,10.70
2019-05-05T17:48:35.197Z,10.50
2019-05-05T17:51:31.378Z,10.30
2019-05-05T17:54:11.072Z,10.20
2019-05-05T17:56:42.686Z,10.10
2019-05-05T17:59:14.146Z,10.00
2019-05-05T18:01:45.936Z,9.90
2019-05-05T18:04:17.455Z,9.90
2019-05-05T18:07:01.406Z,9.80
2019-05-05T18:09:43.790Z,9.70
2019-05-05T18:12:36.718Z,9.60
2019-05-05T18:15:13.551Z,9.60
2019-05-05T18:17:45.716Z,9.50
2019-05-05T18:20:17.103Z,9.50
2019-05-05T18:22:48.794Z,9.40
2019-05-05T18:25:20.514Z,9.40
2019-05-05T18:27:52.093Z,9.40
2019-05-05T18:30:24.021Z,9.30
2019-05-05T18:32:55.916Z,9.30
2019-05-05T18:35:27.786Z,9.30
2019-05-05T18:37:59.569Z,9.40
2019-05-05T18:40:30.630Z,9.30
2019-05-05T18:43:04.583Z,9.30
2019-05-05T18:45:36.227Z,9.30
2019-05-05T18:48:07.659Z,9.30
2019-05-05T18:50:39.321Z,9.30
2019-05-05T18:53:11.003Z,9.30
2019-05-05T18:55:44.651Z,9.30
2019-05-05T18:58:27.144Z,9.30
2019-05-05T19:01:05.123Z,9.30
2019-05-05T19:03:55.700Z,9.30
2019-05-05T19:06:44.686Z,9.30
2019-05-05T19:09:19.462Z,9.30
2019-05-05T19:11:51.712Z,9.30
2019-05-05T19:14:24.337Z,9.20
2019-05-05T19:16:56.270Z,9.20
2019-05-05T19:19:27.999Z,9.20
2019-05-05T19:22:04.354Z,9.10
2019-05-05T19:24:36.648Z,9.10
2019-05-05T19:27:08.174Z,9.10
2019-05-05T19:29:39.999Z,9.10
2019-05-05T19:32:11.619Z,9.10
2019-05-05T19:34:43.957Z,9.10
2019-05-05T19:37:15.789Z,9.10
2019-05-05T19:39:46.841Z,9.10
2019-05-05T19:42:19.987Z,9.00
2019-05-05T19:44:51.673Z,9.10
2019-05-05T19:47:24.618Z,9.10
2019-05-05T19:50:02.163Z,9.00
2019-05-05T19:52:34.821Z,9.00
2019-05-05T19:55:06.663Z,9.00
2019-05-05T19:57:37.964Z,9.00
2019-05-05T20:00:09.719Z,9.00
2019-05-05T20:02:40.922Z,8.90
2019-05-05T20:05:15.568Z,8.90
2019-05-05T20:07:47.460Z,8.90
2019-05-05T20:10:19.577Z,8.80
2019-05-05T20:12:53.749Z,8.80
2019-05-05T20:15:33.808Z,8.80
2019-05-05T20:18:07.957Z,8.70
2019-05-05T20:20:39.291Z,8.70
2019-05-05T20:23:10.957Z,8.70
2019-05-05T20:25:44.655Z,8.70
2019-05-05T20:28:15.912Z,8.60
2019-05-05T20:30:47.570Z,8.60
2019-05-05T20:33:26.590Z,8.70
2019-05-05T20:36:05.010Z,8.70
2019-05-05T20:38:40.729Z,8.60
2019-05-05T20:41:16.212Z,8.60
2019-05-05T20:43:47.952Z,8.50
2019-05-05T20:46:20.017Z,8.50
2019-05-05T20:48:51.533Z,8.40
2019-05-05T20:51:24.312Z,8.40
2019-05-05T20:53:56.109Z,8.40
2019-05-05T20:56:28.043Z,8.50
2019-05-05T20:58:59.678Z,8.60
2019-05-05T21:01:31.273Z,8.60
2019-05-05T21:04:04.786Z,8.50
2019-05-05T21:06:36.228Z,8.40
2019-05-05T21:09:08.544Z,8.40
2019-05-05T21:11:40.493Z,8.40
2019-05-05T21:14:12.164Z,8.40
2019-05-05T21:16:44.135Z,8.30
2019-05-05T21:19:16.039Z,8.30
2019-05-05T21:21:50.810Z,8.30
2019-05-05T21:24:23.959Z,8.30
2019-05-05T21:26:58.242Z,8.30
2019-05-05T21:29:39.524Z,8.30
2019-05-05T21:32:04.550Z,8.20
2019-05-05T21:34:36.284Z,8.20
2019-05-05T21:37:07.547Z,8.20
2019-05-05T21:39:39.718Z,8.10
2019-05-05T21:42:13.922Z,8.00
2019-05-05T21:44:45.697Z,8.00
2019-05-05T21:47:17.829Z,8.00
2019-05-05T21:49:49.366Z,8.00
2019-05-05T21:52:40.932Z,7.90
2019-05-05T21:55:18.958Z,7.90
2019-05-05T21:58:08.290Z,7.90
2019-05-05T22:01:04.471Z,7.80
2019-05-05T22:03:37.445Z,7.70
2019-05-05T22:06:09.257Z,7.70
2019-05-05T22:08:41.180Z,7.60
2019-05-05T22:11:14.643Z,7.50
2019-05-05T22:13:46.802Z,7.50
2019-05-05T22:16:18.410Z,7.40
2019-05-05T22:18:50.597Z,7.40
2019-05-05T22:21:35.825Z,7.30
2019-05-05T22:24:33.368Z,7.30
2019-05-05T22:27:04.808Z,7.20
2019-05-05T22:29:36.151Z,7.10
2019-05-05T22:32:07.978Z,7.10
2019-05-05T22:34:39.755Z,7.00
2019-05-05T22:37:11.422Z,7.00
2019-05-05T22:39:44.545Z,6.90
2019-05-05T22:42:16.266Z,6.80
2019-05-05T22:44:47.789Z,6.80
2019-05-05T22:47:18.771Z,6.80
2019-05-05T22:49:50.382Z,6.70
2019-05-05T22:52:25.110Z,6.60
2019-05-05T22:54:54.660Z,6.50
2019-05-05T22:57:26.300Z,6.50
2019-05-05T22:59:57.955Z,6.40
2019-05-05T23:02:33.920Z,6.40
2019-05-05T23:05:14.625Z,6.40
2019-05-05T23:07:46.191Z,6.30
2019-05-05T23:10:17.547Z,6.20
2019-05-05T23:12:49.087Z,6.10
2019-05-05T23:15:20.937Z,6.00
2019-05-05T23:18:00.762Z,6.00
2019-05-05T23:21:15.631Z,6.00
2019-05-05T23:24:11.530Z,5.90
2019-05-05T23:26:43.934Z,5.90
2019-05-05T23:29:15.615Z,5.90
2019-05-05T23:31:47.165Z,5.80
2019-05-05T23:34:18.761Z,5.80
2019-05-05T23:36:50.425Z,5.80
2019-05-05T23:39:21.749Z,5.80
2019-05-05T23:41:54.688Z,5.70
2019-05-05T23:44:27.017Z,5.60
2019-05-05T23:46:59.182Z,5.50
2019-05-05T23:49:31.191Z,5.50
2019-05-05T23:52:04.392Z,5.40
2019-05-05T23:54:36.787Z,5.40
2019-05-05T23:57:08.367Z,5.40
2019-05-05T23:59:40.325Z,5.40
